Flugplatz Münster Osnabrück

Bericht für EDDG

vom 14.11. um 04:20 UTC

Wind 3 kt aus 150°

Sichtweite 10 km oder mehr

Nebelschwaden

keine Wolken

Temperatur 5.0°C

Taupunkt 4.0°C

Luftfeuchtigkeit 93%

Luftdruck 1028 hPa

EDDG 140420Z 15003KT 9999 1400W R25/P2000N BCFG NSC 05/04 Q1028 TEMPO 0600 FG

Prognose für EDDG

vom 13.11. um 23:00 UTC

Zwischen 00:00 UTC und 00:00 UTC

Wind 5 kt aus 170°

Sichtweite 10 km oder mehr

keine signifikanten Wettererscheinungen

keine Wolken


Zwischen 03:00 UTC und 08:00 UTC zeitweise mit einer Wahrscheinlichkeit von 30%

aufgebrochene Bewölkung in 800 ft

TAF EDDG 132300Z 1400/1424 17005KT CAVOK PROB30 TEMPO 1403/1408 BKN008
Impressum